createdAt,value
2023-05-16T00:01:01.501Z,100.00
2023-05-16T00:03:28.328Z,99.61
2023-05-16T00:05:56.026Z,99.60
2023-05-16T00:08:22.930Z,99.09
2023-05-16T00:10:49.564Z,98.19
2023-05-16T00:13:16.256Z,98.03
2023-05-16T00:15:44.232Z,96.33
2023-05-16T00:18:14.755Z,96.80
2023-05-16T00:20:41.823Z,97.34
2023-05-16T00:23:08.727Z,97.43
2023-05-16T00:25:36.536Z,97.57
2023-05-16T00:28:03.435Z,97.72
2023-05-16T00:30:30.781Z,97.51
2023-05-16T00:32:57.525Z,97.21
2023-05-16T00:35:24.304Z,97.22
2023-05-16T00:37:51.316Z,95.93
2023-05-16T00:40:18.111Z,96.50
2023-05-16T00:42:44.870Z,97.38
2023-05-16T00:45:12.078Z,96.49
2023-05-16T00:47:38.839Z,96.74
2023-05-16T00:50:07.285Z,97.42
2023-05-16T00:52:34.135Z,96.96
2023-05-16T00:55:03.900Z,98.22
2023-05-16T00:57:30.871Z,97.45
2023-05-16T00:59:57.934Z,96.86
2023-05-16T01:02:28.542Z,96.92
2023-05-16T01:04:55.445Z,96.36
2023-05-16T01:07:23.586Z,96.69
2023-05-16T01:09:50.317Z,96.69
2023-05-16T01:12:30.001Z,97.11
2023-05-16T01:15:06.668Z,98.98
2023-05-16T01:17:50.892Z,100.00
2023-05-16T01:20:55.830Z,100.00
2023-05-16T01:24:01.427Z,100.00
2023-05-16T01:26:29.952Z,100.00
2023-05-16T01:28:57.304Z,100.00
2023-05-16T01:31:24.452Z,100.00
2023-05-16T01:33:51.367Z,100.00
2023-05-16T01:36:17.946Z,100.00
2023-05-16T01:38:57.231Z,100.00
2023-05-16T01:42:07.859Z,100.00
2023-05-16T01:44:41.343Z,100.00
2023-05-16T01:47:16.576Z,100.00
2023-05-16T01:49:56.163Z,100.00
2023-05-16T01:52:28.488Z,100.00
2023-05-16T01:54:57.939Z,100.00
2023-05-16T01:57:27.044Z,100.00
2023-05-16T01:59:53.850Z,100.00
2023-05-16T02:02:21.066Z,100.00
2023-05-16T02:04:47.733Z,100.00
2023-05-16T02:07:15.955Z,100.00
2023-05-16T02:09:45.135Z,100.00
2023-05-16T02:12:11.728Z,100.00
2023-05-16T02:14:38.355Z,100.00
2023-05-16T02:17:06.462Z,100.00
2023-05-16T02:19:33.126Z,100.00
2023-05-16T02:22:00.749Z,100.00
2023-05-16T02:24:27.457Z,100.00
2023-05-16T02:26:55.539Z,100.00
2023-05-16T02:29:22.196Z,100.00
2023-05-16T02:31:49.651Z,100.00
2023-05-16T02:34:16.783Z,100.00
2023-05-16T02:36:43.560Z,100.00
2023-05-16T02:39:10.461Z,100.00
2023-05-16T02:41:37.526Z,100.00
2023-05-16T02:44:04.287Z,100.00
2023-05-16T02:46:33.555Z,100.00
2023-05-16T02:49:01.596Z,100.00
2023-05-16T02:51:29.081Z,100.00
2023-05-16T02:54:02.678Z,100.00
2023-05-16T02:56:29.582Z,100.00
2023-05-16T02:58:56.517Z,100.00
2023-05-16T03:01:23.666Z,100.00
2023-05-16T03:03:51.091Z,100.00
2023-05-16T03:06:17.923Z,100.00
2023-05-16T03:08:44.541Z,100.00
2023-05-16T03:11:11.229Z,100.00
2023-05-16T03:13:37.817Z,100.00
2023-05-16T03:16:06.317Z,100.00
2023-05-16T03:18:33.311Z,100.00
2023-05-16T03:21:00.037Z,100.00
2023-05-16T03:23:27.309Z,100.00
2023-05-16T03:25:56.196Z,100.00
2023-05-16T03:28:22.841Z,100.00
2023-05-16T03:30:49.453Z,100.00
2023-05-16T03:33:16.243Z,99.01
2023-05-16T03:35:44.039Z,99.03
2023-05-16T03:38:11.086Z,99.77
2023-05-16T03:40:37.778Z,98.70
2023-05-16T03:43:04.503Z,99.57
2023-05-16T03:45:31.722Z,99.40
2023-05-16T03:47:58.506Z,98.07
2023-05-16T03:50:25.571Z,97.58
2023-05-16T03:52:55.076Z,98.36
2023-05-16T03:55:21.819Z,97.77
2023-05-16T03:57:50.170Z,96.92
2023-05-16T04:00:17.875Z,96.72
2023-05-16T04:02:45.001Z,97.21
2023-05-16T04:05:14.925Z,97.07
2023-05-16T04:07:41.601Z,95.99
2023-05-16T04:10:12.234Z,97.36
2023-05-16T04:12:38.944Z,96.03
2023-05-16T04:15:07.357Z,95.78
2023-05-16T04:17:34.836Z,96.22
2023-05-16T04:20:01.704Z,96.12
2023-05-16T04:22:28.601Z,95.80
2023-05-16T04:24:55.361Z,94.99
2023-05-16T04:27:22.029Z,94.98
2023-05-16T04:29:48.582Z,95.06
2023-05-16T04:32:15.470Z,93.92
2023-05-16T04:34:44.305Z,93.42
2023-05-16T04:37:10.924Z,93.75
2023-05-16T04:39:38.124Z,94.72
2023-05-16T04:42:05.729Z,93.93
2023-05-16T04:44:32.418Z,93.62
2023-05-16T04:46:59.599Z,91.28
2023-05-16T04:49:26.345Z,91.57
2023-05-16T04:51:53.256Z,90.87
2023-05-16T04:54:19.837Z,92.75
2023-05-16T04:56:46.541Z,96.28
2023-05-16T04:59:13.179Z,96.47
2023-05-16T05:01:40.006Z,97.35
2023-05-16T05:04:06.792Z,95.91
2023-05-16T05:06:33.608Z,97.26
2023-05-16T05:09:00.346Z,96.85
2023-05-16T05:11:27.477Z,95.94
2023-05-16T05:13:54.404Z,96.52
2023-05-16T05:16:21.141Z,94.66
2023-05-16T05:18:47.863Z,95.28
2023-05-16T05:21:14.670Z,95.74
2023-05-16T05:23:41.473Z,96.60
2023-05-16T05:26:08.272Z,94.27
2023-05-16T05:28:34.891Z,95.46
2023-05-16T05:31:01.770Z,94.36
2023-05-16T05:33:29.697Z,94.05
2023-05-16T05:35:56.825Z,94.94
2023-05-16T05:38:23.507Z,95.24
2023-05-16T05:40:50.119Z,95.14
2023-05-16T05:43:17.094Z,94.31
2023-05-16T05:45:44.495Z,93.23
2023-05-16T05:48:12.501Z,95.69
2023-05-16T05:50:39.462Z,96.08
2023-05-16T05:53:06.029Z,95.69
2023-05-16T05:55:32.623Z,94.66
2023-05-16T05:57:59.269Z,95.21
2023-05-16T06:00:25.988Z,95.79
2023-05-16T06:02:52.910Z,95.45
2023-05-16T06:05:19.944Z,94.98
2023-05-16T06:07:46.621Z,93.62
2023-05-16T06:10:13.571Z,94.86
2023-05-16T06:12:40.239Z,93.04
2023-05-16T06:15:07.734Z,94.33
2023-05-16T06:17:34.516Z,91.82
2023-05-16T06:20:01.743Z,91.81
2023-05-16T06:22:28.476Z,90.91
2023-05-16T06:24:55.109Z,91.24
2023-05-16T06:27:21.687Z,89.47
2023-05-16T06:29:48.269Z,90.18
2023-05-16T06:32:14.965Z,87.87
2023-05-16T06:34:41.664Z,87.57
2023-05-16T06:37:08.298Z,86.42
2023-05-16T06:39:34.867Z,86.63
2023-05-16T06:42:01.614Z,86.44
2023-05-16T06:44:32.009Z,85.01
2023-05-16T06:46:58.989Z,84.19
2023-05-16T06:49:25.819Z,86.54
2023-05-16T06:51:52.566Z,85.33
2023-05-16T06:54:19.225Z,83.04
2023-05-16T06:56:46.054Z,81.15
2023-05-16T06:59:12.776Z,83.15
2023-05-16T07:01:39.781Z,83.62
2023-05-16T07:04:06.736Z,80.84
2023-05-16T07:06:33.776Z,80.56
2023-05-16T07:09:00.629Z,79.46
2023-05-16T07:11:27.301Z,77.41
2023-05-16T07:13:54.155Z,78.58
2023-05-16T07:16:20.981Z,76.18
2023-05-16T07:18:47.679Z,75.91
2023-05-16T07:21:14.437Z,74.38
2023-05-16T07:23:41.668Z,76.19
2023-05-16T07:26:08.711Z,73.83
2023-05-16T07:28:35.552Z,72.02
2023-05-16T07:31:02.335Z,71.15
2023-05-16T07:33:29.004Z,71.28
2023-05-16T07:36:07.804Z,74.00
2023-05-16T07:38:42.327Z,70.75
2023-05-16T07:41:09.307Z,69.51
2023-05-16T07:43:36.828Z,73.98
2023-05-16T07:46:03.592Z,69.88
2023-05-16T07:48:30.415Z,70.58
2023-05-16T07:50:57.099Z,71.67
2023-05-16T07:53:23.913Z,69.12
2023-05-16T07:55:50.900Z,68.19
2023-05-16T07:58:18.412Z,62.81
2023-05-16T08:00:45.538Z,62.96
2023-05-16T08:03:12.667Z,63.10
2023-05-16T08:05:39.971Z,63.56
2023-05-16T08:08:06.850Z,61.96
2023-05-16T08:10:33.654Z,61.46
2023-05-16T08:13:00.582Z,62.08
2023-05-16T08:15:28.310Z,64.21
2023-05-16T08:17:58.266Z,63.14
2023-05-16T08:20:28.142Z,64.45
2023-05-16T08:22:55.350Z,63.70
2023-05-16T08:25:22.099Z,62.46
2023-05-16T08:27:50.694Z,63.15
2023-05-16T08:30:17.485Z,62.38
2023-05-16T08:32:44.307Z,62.81
2023-05-16T08:35:14.431Z,59.51
2023-05-16T08:37:41.689Z,55.81
2023-05-16T08:40:14.282Z,57.61
2023-05-16T08:42:42.348Z,59.30
2023-05-16T08:45:10.739Z,59.76
2023-05-16T08:47:41.582Z,59.24
2023-05-16T08:50:14.353Z,60.35
2023-05-16T08:52:43.599Z,62.56
2023-05-16T08:55:13.320Z,62.74
2023-05-16T08:57:41.045Z,59.13
2023-05-16T09:00:14.464Z,55.68
2023-05-16T09:02:43.421Z,57.65
2023-05-16T09:05:14.347Z,58.82
2023-05-16T09:07:42.485Z,61.26
2023-05-16T09:10:11.986Z,62.45
2023-05-16T09:12:40.971Z,62.69
2023-05-16T09:15:09.064Z,62.85
2023-05-16T09:17:44.177Z,59.17
2023-05-16T09:20:19.421Z,60.60
2023-05-16T09:22:56.970Z,56.41
2023-05-16T09:25:30.228Z,53.83
2023-05-16T09:28:01.336Z,54.30
2023-05-16T09:30:31.502Z,54.87
2023-05-16T09:32:59.209Z,54.43
2023-05-16T09:35:43.129Z,54.73
2023-05-16T09:38:16.709Z,52.29
2023-05-16T09:40:44.481Z,53.51
2023-05-16T09:43:16.257Z,52.27
2023-05-16T09:45:47.599Z,53.61
2023-05-16T09:48:15.941Z,54.07
2023-05-16T09:50:49.915Z,51.78
2023-05-16T09:53:16.816Z,49.84
2023-05-16T09:55:43.736Z,48.05
2023-05-16T09:58:17.932Z,51.26
2023-05-16T10:00:45.371Z,50.72
2023-05-16T10:03:12.607Z,49.44
2023-05-16T10:05:39.710Z,50.77
2023-05-16T10:08:06.782Z,52.35
2023-05-16T10:10:38.554Z,52.31
2023-05-16T10:13:07.277Z,52.61
2023-05-16T10:15:37.906Z,53.29
2023-05-16T10:18:11.836Z,50.91
2023-05-16T10:20:41.643Z,50.33
2023-05-16T10:23:09.516Z,51.48
2023-05-16T10:25:41.803Z,50.67
2023-05-16T10:28:09.465Z,51.85
2023-05-16T10:30:37.500Z,53.57
2023-05-16T10:33:04.709Z,52.14
2023-05-16T10:35:33.037Z,51.74
2023-05-16T10:38:01.148Z,51.63
2023-05-16T10:40:29.295Z,52.63
2023-05-16T10:43:07.287Z,52.64
2023-05-16T10:45:34.902Z,52.25
2023-05-16T10:48:07.020Z,52.68
2023-05-16T10:50:46.372Z,52.78
2023-05-16T10:53:19.292Z,53.34
2023-05-16T10:55:51.360Z,52.22
2023-05-16T10:58:38.525Z,51.85
2023-05-16T11:01:36.287Z,53.91
2023-05-16T11:04:07.478Z,51.80
2023-05-16T11:06:43.497Z,50.88
2023-05-16T11:09:13.759Z,50.36
2023-05-16T11:11:40.690Z,51.64
2023-05-16T11:14:08.165Z,49.51
2023-05-16T11:16:36.038Z,48.53
2023-05-16T11:19:09.254Z,47.71
2023-05-16T11:22:24.016Z,49.22
2023-05-16T11:24:53.747Z,47.99
2023-05-16T11:27:27.863Z,48.49
2023-05-16T11:30:01.871Z,49.28
2023-05-16T11:32:31.285Z,47.60
2023-05-16T11:34:58.495Z,48.43
2023-05-16T11:37:25.246Z,46.47
2023-05-16T11:39:52.019Z,47.13
2023-05-16T11:42:18.759Z,47.01
2023-05-16T11:44:45.877Z,46.56
2023-05-16T11:47:12.845Z,47.12
2023-05-16T11:49:39.700Z,45.33
2023-05-16T11:52:09.544Z,45.46
2023-05-16T11:54:36.547Z,44.50
2023-05-16T11:57:03.330Z,45.02
2023-05-16T11:59:30.087Z,44.27
2023-05-16T12:01:56.727Z,43.72
2023-05-16T12:04:24.471Z,43.20
2023-05-16T12:06:59.908Z,44.57
2023-05-16T12:09:26.682Z,45.80
2023-05-16T12:11:53.420Z,43.03
2023-05-16T12:14:20.507Z,44.78
2023-05-16T12:16:52.126Z,43.47
2023-05-16T12:19:19.421Z,43.61
2023-05-16T12:21:46.221Z,44.36
2023-05-16T12:24:13.075Z,43.57
2023-05-16T12:26:41.307Z,43.89
2023-05-16T12:29:08.368Z,43.07
2023-05-16T12:31:40.909Z,43.19
2023-05-16T12:34:19.286Z,42.67
2023-05-16T12:36:51.634Z,43.22
2023-05-16T12:39:18.265Z,42.09
2023-05-16T12:41:44.885Z,42.70
2023-05-16T12:44:13.498Z,43.35
2023-05-16T12:46:51.979Z,44.84
2023-05-16T12:49:22.678Z,44.17
2023-05-16T12:51:58.086Z,45.25
2023-05-16T12:54:25.493Z,45.57
2023-05-16T12:56:52.210Z,44.64
2023-05-16T12:59:20.271Z,44.11
2023-05-16T13:01:47.125Z,44.27
2023-05-16T13:04:19.474Z,43.77
2023-05-16T13:06:58.685Z,43.88
2023-05-16T13:09:29.902Z,45.56
2023-05-16T13:11:59.652Z,45.69
2023-05-16T13:14:27.018Z,46.55
2023-05-16T13:16:53.638Z,46.55
2023-05-16T13:19:21.498Z,46.57
2023-05-16T13:21:48.279Z,46.40
2023-05-16T13:24:14.937Z,46.57
2023-05-16T13:26:41.774Z,46.36
2023-05-16T13:29:11.449Z,44.37
2023-05-16T13:31:38.125Z,43.66
2023-05-16T13:34:04.734Z,44.22
2023-05-16T13:36:41.593Z,46.12
2023-05-16T13:39:18.573Z,50.09
2023-05-16T13:41:47.297Z,44.69
2023-05-16T13:44:15.523Z,44.66
2023-05-16T13:46:42.366Z,44.22
2023-05-16T13:49:08.967Z,44.35
2023-05-16T13:51:35.857Z,45.43
2023-05-16T13:54:02.523Z,44.44
2023-05-16T13:56:29.198Z,42.43
2023-05-16T13:59:03.783Z,44.89
2023-05-16T14:01:33.635Z,44.05
2023-05-16T14:04:00.374Z,42.90
2023-05-16T14:06:27.024Z,44.07
2023-05-16T14:08:53.801Z,44.76
2023-05-16T14:11:23.151Z,45.57
2023-05-16T14:13:49.800Z,46.13
2023-05-16T14:16:16.433Z,47.42
2023-05-16T14:18:43.166Z,48.57
2023-05-16T14:21:10.267Z,48.13
2023-05-16T14:23:37.097Z,48.23
2023-05-16T14:26:06.945Z,49.46
2023-05-16T14:28:34.359Z,49.25
2023-05-16T14:31:02.506Z,49.50
2023-05-16T14:33:29.171Z,48.47
2023-05-16T14:35:56.766Z,50.14
2023-05-16T14:38:23.366Z,45.04
2023-05-16T14:40:50.128Z,46.16
2023-05-16T14:43:17.381Z,46.13
2023-05-16T14:45:44.055Z,46.78
2023-05-16T14:48:10.830Z,43.83
2023-05-16T14:50:37.633Z,44.82
2023-05-16T14:53:04.457Z,44.16
2023-05-16T14:55:31.665Z,45.34
2023-05-16T14:58:00.030Z,44.42
2023-05-16T15:00:27.850Z,44.56
2023-05-16T15:02:55.443Z,44.60
2023-05-16T15:05:22.755Z,42.52
2023-05-16T15:07:50.080Z,43.61
2023-05-16T15:10:17.334Z,44.05
2023-05-16T15:12:43.974Z,44.92
2023-05-16T15:15:12.265Z,43.95
2023-05-16T15:17:42.592Z,43.67
2023-05-16T15:20:13.214Z,45.52
2023-05-16T15:22:41.101Z,45.34
2023-05-16T15:25:08.978Z,46.53
2023-05-16T15:27:35.740Z,44.18
2023-05-16T15:30:02.741Z,44.69
2023-05-16T15:32:30.067Z,45.45
2023-05-16T15:34:57.857Z,45.51
2023-05-16T15:37:24.592Z,46.97
2023-05-16T15:39:51.344Z,46.26
2023-05-16T15:42:20.093Z,46.72
2023-05-16T15:44:47.196Z,47.20
2023-05-16T15:47:14.045Z,47.42
2023-05-16T15:49:41.612Z,47.27
2023-05-16T15:52:08.773Z,47.28
2023-05-16T15:54:36.370Z,45.42
2023-05-16T15:57:03.189Z,45.59
2023-05-16T15:59:29.897Z,45.45
2023-05-16T16:01:56.637Z,46.26
2023-05-16T16:04:23.713Z,45.75
2023-05-16T16:06:50.681Z,46.30
2023-05-16T16:09:17.604Z,45.98
2023-05-16T16:11:44.347Z,46.53
2023-05-16T16:14:11.251Z,46.68
2023-05-16T16:16:40.870Z,46.41
2023-05-16T16:19:08.531Z,45.66
2023-05-16T16:21:35.837Z,46.75
2023-05-16T16:24:02.549Z,46.29
2023-05-16T16:26:29.269Z,46.49
2023-05-16T16:28:55.920Z,46.24
2023-05-16T16:31:22.715Z,46.19
2023-05-16T16:33:49.480Z,45.69
2023-05-16T16:36:17.291Z,45.82
2023-05-16T16:38:44.126Z,47.17
2023-05-16T16:41:11.335Z,47.46
2023-05-16T16:43:41.015Z,47.95
2023-05-16T16:46:07.899Z,47.19
2023-05-16T16:48:35.052Z,48.03
2023-05-16T16:51:02.802Z,47.89
2023-05-16T16:53:30.474Z,48.15
2023-05-16T16:55:57.142Z,48.21
2023-05-16T16:58:23.875Z,49.69
2023-05-16T17:00:50.614Z,50.36
2023-05-16T17:03:18.481Z,51.26
2023-05-16T17:05:45.442Z,51.59
2023-05-16T17:08:12.307Z,51.88
2023-05-16T17:10:39.437Z,52.31
2023-05-16T17:13:10.240Z,52.35
2023-05-16T17:15:37.677Z,52.99
2023-05-16T17:18:07.477Z,52.80
2023-05-16T17:20:35.164Z,52.90
2023-05-16T17:23:02.932Z,53.62
2023-05-16T17:25:30.202Z,53.28
2023-05-16T17:27:57.130Z,53.62
2023-05-16T17:30:23.722Z,53.37
2023-05-16T17:32:50.400Z,55.23
2023-05-16T17:35:17.184Z,54.24
2023-05-16T17:37:44.269Z,55.08
2023-05-16T17:40:16.660Z,56.10
2023-05-16T17:42:44.520Z,56.36
2023-05-16T17:45:13.190Z,55.68
2023-05-16T17:47:40.591Z,55.87
2023-05-16T17:50:09.944Z,58.11
2023-05-16T17:52:39.398Z,57.92
2023-05-16T17:55:10.897Z,59.55
2023-05-16T17:57:37.765Z,58.22
2023-05-16T18:00:05.854Z,59.71
2023-05-16T18:02:32.927Z,59.09
2023-05-16T18:04:59.832Z,61.02
2023-05-16T18:07:27.262Z,60.29
2023-05-16T18:09:54.455Z,60.72
2023-05-16T18:12:21.361Z,61.65
2023-05-16T18:14:48.163Z,61.18
2023-05-16T18:17:14.971Z,61.63
2023-05-16T18:19:41.796Z,63.32
2023-05-16T18:22:08.896Z,61.58
2023-05-16T18:24:35.841Z,60.92
2023-05-16T18:27:03.263Z,61.55
2023-05-16T18:29:30.323Z,61.72
2023-05-16T18:31:57.832Z,60.66
2023-05-16T18:34:24.574Z,62.08
2023-05-16T18:36:51.287Z,61.37
2023-05-16T18:39:18.981Z,61.32
2023-05-16T18:41:48.313Z,61.82
2023-05-16T18:44:17.979Z,61.82
2023-05-16T18:46:46.495Z,63.00
2023-05-16T18:49:14.476Z,63.20
2023-05-16T18:51:41.657Z,63.84
2023-05-16T18:54:08.398Z,64.29
2023-05-16T18:56:35.459Z,64.03
2023-05-16T18:59:02.322Z,65.06
2023-05-16T19:01:29.063Z,64.31
2023-05-16T19:03:56.128Z,65.20
2023-05-16T19:06:23.202Z,65.81
2023-05-16T19:08:49.917Z,67.25
2023-05-16T19:11:17.860Z,66.78
2023-05-16T19:13:45.332Z,67.36
2023-05-16T19:16:12.046Z,67.29
2023-05-16T19:18:39.117Z,67.99
2023-05-16T19:21:07.764Z,67.87
2023-05-16T19:23:34.434Z,68.75
2023-05-16T19:26:01.274Z,68.95
2023-05-16T19:28:27.940Z,68.59
2023-05-16T19:30:54.602Z,69.07
2023-05-16T19:33:21.749Z,69.00
2023-05-16T19:35:51.363Z,69.58
2023-05-16T19:38:23.825Z,70.12
2023-05-16T19:40:52.478Z,69.99
2023-05-16T19:43:19.352Z,68.69
2023-05-16T19:45:46.087Z,69.07
2023-05-16T19:48:12.808Z,69.26
2023-05-16T19:50:39.847Z,70.46
2023-05-16T19:53:06.558Z,70.22
2023-05-16T19:55:35.159Z,70.76
2023-05-16T19:58:02.578Z,70.90
2023-05-16T20:00:29.393Z,70.40
2023-05-16T20:02:56.124Z,71.10
2023-05-16T20:05:23.432Z,71.18
2023-05-16T20:07:50.507Z,71.58
2023-05-16T20:10:17.893Z,71.86
2023-05-16T20:12:45.761Z,71.67
2023-05-16T20:15:12.734Z,71.48
2023-05-16T20:17:40.523Z,73.47
2023-05-16T20:20:09.441Z,73.00
2023-05-16T20:22:41.380Z,72.82
2023-05-16T20:25:09.742Z,73.27
2023-05-16T20:27:37.787Z,72.66
2023-05-16T20:30:06.555Z,73.16
2023-05-16T20:32:33.535Z,73.45
2023-05-16T20:35:01.267Z,73.51
2023-05-16T20:37:27.980Z,73.34
2023-05-16T20:39:54.692Z,73.75
2023-05-16T20:42:21.777Z,74.44
2023-05-16T20:44:48.598Z,74.27
2023-05-16T20:47:16.800Z,75.32
2023-05-16T20:49:43.725Z,75.77
2023-05-16T20:52:10.424Z,73.71
2023-05-16T20:54:37.086Z,74.88
2023-05-16T20:57:04.136Z,74.89
2023-05-16T20:59:30.741Z,74.43
2023-05-16T21:01:57.538Z,73.10
2023-05-16T21:04:24.390Z,72.65
2023-05-16T21:06:51.438Z,70.38
2023-05-16T21:09:18.042Z,70.41
2023-05-16T21:11:44.705Z,71.69
2023-05-16T21:14:11.441Z,71.82
2023-05-16T21:16:38.176Z,72.81
2023-05-16T21:19:05.097Z,73.04
2023-05-16T21:21:32.228Z,72.81
2023-05-16T21:23:58.945Z,74.31
2023-05-16T21:26:26.078Z,74.96
2023-05-16T21:28:55.340Z,74.16
2023-05-16T21:31:23.082Z,75.86
2023-05-16T21:33:52.060Z,76.04
2023-05-16T21:36:22.859Z,77.10
2023-05-16T21:38:49.481Z,79.04
2023-05-16T21:41:18.056Z,78.97
2023-05-16T21:43:44.827Z,79.00
2023-05-16T21:46:11.556Z,78.78
2023-05-16T21:48:38.326Z,78.49
2023-05-16T21:51:05.068Z,78.57
2023-05-16T21:53:31.747Z,78.39
2023-05-16T21:55:59.677Z,77.78
2023-05-16T21:58:26.264Z,78.31
2023-05-16T22:00:52.879Z,78.73
2023-05-16T22:03:21.117Z,79.43
2023-05-16T22:05:47.941Z,78.42
2023-05-16T22:08:14.710Z,78.09
2023-05-16T22:10:41.687Z,79.63
2023-05-16T22:13:08.561Z,79.99
2023-05-16T22:15:35.214Z,80.33
2023-05-16T22:18:02.399Z,81.03
2023-05-16T22:20:29.720Z,81.31
2023-05-16T22:22:56.805Z,81.43
2023-05-16T22:25:23.960Z,81.03
2023-05-16T22:27:50.610Z,81.17
2023-05-16T22:30:17.695Z,81.45
2023-05-16T22:32:46.754Z,81.97
2023-05-16T22:35:14.126Z,82.60
2023-05-16T22:37:40.836Z,82.80
2023-05-16T22:40:08.695Z,83.26
2023-05-16T22:42:37.255Z,83.26
2023-05-16T22:45:04.191Z,83.58
2023-05-16T22:47:30.943Z,84.14
2023-05-16T22:49:57.660Z,83.78
2023-05-16T22:52:24.437Z,83.58
2023-05-16T22:54:51.146Z,84.07
2023-05-16T22:57:17.910Z,86.10
2023-05-16T22:59:44.750Z,85.71
2023-05-16T23:02:11.427Z,85.85
2023-05-16T23:04:38.258Z,85.95
2023-05-16T23:07:05.570Z,86.25
2023-05-16T23:09:32.235Z,87.06
2023-05-16T23:11:59.168Z,86.17
2023-05-16T23:14:26.285Z,85.95
2023-05-16T23:16:53.009Z,87.09
2023-05-16T23:19:19.797Z,86.33
2023-05-16T23:21:46.779Z,88.35
2023-05-16T23:24:13.510Z,88.69
2023-05-16T23:26:40.208Z,89.19
2023-05-16T23:29:07.685Z,88.36
2023-05-16T23:31:34.347Z,89.39
2023-05-16T23:34:01.124Z,90.37
2023-05-16T23:36:27.927Z,90.71
2023-05-16T23:38:54.693Z,90.77
2023-05-16T23:41:21.453Z,91.44
2023-05-16T23:43:48.500Z,91.12
2023-05-16T23:46:15.363Z,90.75
2023-05-16T23:48:42.274Z,89.86
2023-05-16T23:51:18.228Z,91.16
2023-05-16T23:53:44.880Z,90.08
2023-05-16T23:56:11.691Z,90.11
2023-05-16T23:58:38.416Z,91.38
